Time;durP1;ratioP1;P1;durP2;ratioP2;P2;SDS_P1;SDS_P2;PMS_P1;PMS_P2;Temp;Humidity;BMP_temperature;BMP_pressure;BME280_temperature;BME280_humidity;BME280_pressure;Samples;Min_cycle;Max_cycle;Signal;HPM_P1;HPM_P2
2023/01/12 00:02:13;;;;;;;4.25;1.85;;;5.80;99.90;;;;;;4951709;29;20326;-67
2023/01/12 00:04:41;;;;;;;3.38;1.42;;;6.00;99.90;;;;;;4948167;28;20201;-67
2023/01/12 00:07:10;;;;;;;6.20;1.70;;;6.30;99.90;;;;;;4953900;28;20204;-67
2023/01/12 00:09:37;;;;;;;2.63;1.50;;;6.50;99.90;;;;;;4954352;29;20215;-67
2023/01/12 00:12:05;;;;;;;7.57;1.40;;;6.70;99.90;;;;;;4953003;29;20304;-67
2023/01/12 00:14:33;;;;;;;5.75;1.90;;;6.80;99.90;;;;;;4949916;28;20677;-67
2023/01/12 00:17:00;;;;;;;4.00;1.55;;;6.90;99.90;;;;;;4945443;29;20567;-66
2023/01/12 00:19:27;;;;;;;4.78;1.50;;;7.00;99.90;;;;;;4948093;29;20660;-66
2023/01/12 00:22:00;;;;;;;5.75;1.52;;;7.00;99.90;;;;;;4936302;29;20894;-66
2023/01/12 00:24:29;;;;;;;2.58;1.33;;;7.10;99.90;;;;;;4941207;29;20679;-66
2023/01/12 00:26:58;;;;;;;2.95;1.40;;;7.20;99.90;;;;;;4953342;29;20219;-66
2023/01/12 00:29:26;;;;;;;1.90;1.40;;;7.20;99.90;;;;;;4954428;29;20248;-66
2023/01/12 00:31:53;;;;;;;3.92;1.80;;;7.20;99.90;;;;;;4951435;29;20202;-66
2023/01/12 00:34:21;;;;;;;6.00;1.30;;;7.30;99.90;;;;;;4953188;29;20424;-66
2023/01/12 00:36:48;;;;;;;2.88;1.33;;;7.30;99.90;;;;;;4943181;29;20204;-66
2023/01/12 00:39:17;;;;;;;5.03;1.95;;;7.30;99.90;;;;;;4954045;28;20209;-66
2023/01/12 00:47:15;;;;;;;3.63;1.27;;;7.30;99.90;;;;;;4952180;29;20292;-66
2023/01/12 00:49:42;;;;;;;4.70;1.50;;;7.30;99.90;;;;;;4954982;29;20209;-67
2023/01/12 00:52:11;;;;;;;3.72;1.80;;;7.30;99.90;;;;;;4949390;29;20232;-67
2023/01/12 00:54:40;;;;;;;7.53;2.15;;;7.30;99.90;;;;;;4943663;28;20209;-67
2023/01/12 00:57:08;;;;;;;2.92;1.80;;;7.40;99.90;;;;;;4952331;28;20224;-67
2023/01/12 00:59:36;;;;;;;3.65;1.20;;;7.40;99.90;;;;;;4954829;29;20658;-66
2023/01/12 01:02:04;;;;;;;5.13;1.85;;;7.40;99.90;;;;;;4952670;29;20230;-67
2023/01/12 01:04:31;;;;;;;3.50;1.60;;;7.40;99.90;;;;;;4951120;29;20205;-67
2023/01/12 01:06:58;;;;;;;4.55;1.25;;;7.50;99.90;;;;;;4943760;29;20201;-67
2023/01/12 01:09:25;;;;;;;4.90;1.50;;;7.50;99.90;;;;;;4955068;28;20203;-66
2023/01/12 01:11:53;;;;;;;6.88;2.22;;;7.50;99.90;;;;;;4952780;29;20737;-67
2023/01/12 01:14:20;;;;;;;5.90;1.58;;;7.50;99.90;;;;;;4953985;29;20204;-66
2023/01/12 01:16:48;;;;;;;2.88;1.63;;;7.50;99.90;;;;;;4949716;29;20212;-67
2023/01/12 01:19:15;;;;;;;4.50;1.23;;;7.50;99.90;;;;;;4948593;29;20218;-66
2023/01/12 01:21:42;;;;;;;3.05;1.48;;;7.40;99.90;;;;;;4946892;29;20239;-66
2023/01/12 01:24:11;;;;;;;4.07;1.45;;;7.40;99.90;;;;;;4954785;29;20292;-66
2023/01/12 01:26:38;;;;;;;3.92;1.20;;;7.40;99.90;;;;;;4946980;29;20201;-67
2023/01/12 01:29:07;;;;;;;3.80;1.30;;;7.30;99.90;;;;;;4935279;29;20293;-66
2023/01/12 01:31:34;;;;;;;4.78;1.65;;;7.40;99.90;;;;;;4945989;29;20281;-67
2023/01/12 01:34:01;;;;;;;3.50;1.48;;;7.40;99.90;;;;;;4951872;29;20650;-67
2023/01/12 01:36:28;;;;;;;4.30;1.85;;;7.40;99.90;;;;;;4947094;29;20198;-67
2023/01/12 01:38:55;;;;;;;4.68;1.45;;;7.40;99.90;;;;;;4938020;29;20202;-67
2023/01/12 01:41:24;;;;;;;4.30;1.35;;;7.40;99.90;;;;;;4952309;29;20642;-67
2023/01/12 01:43:55;;;;;;;4.63;1.60;;;7.50;99.90;;;;;;4954246;29;20292;-66
2023/01/12 01:46:40;;;;;;;4.63;1.50;;;7.50;99.90;;;;;;4949335;29;20338;-67
2023/01/12 01:49:26;;;;;;;4.72;1.52;;;7.50;99.90;;;;;;4942007;29;20297;-66
2023/01/12 01:51:56;;;;;;;9.60;1.95;;;7.50;99.90;;;;;;4942610;29;20222;-67
2023/01/12 01:54:23;;;;;;;2.72;1.10;;;7.60;99.90;;;;;;4971711;28;20717;-67
2023/01/12 01:56:54;;;;;;;2.72;1.67;;;7.60;99.90;;;;;;4939397;28;20195;-67
2023/01/12 01:59:24;;;;;;;3.97;1.20;;;7.60;99.90;;;;;;4953790;29;20326;-66
2023/01/12 02:01:54;;;;;;;3.50;1.20;;;7.70;99.90;;;;;;4945656;29;20714;-66
2023/01/12 02:04:22;;;;;;;4.78;1.70;;;7.70;99.90;;;;;;4935215;29;20658;-67
2023/01/12 02:06:49;;;;;;;3.50;1.40;;;7.70;99.90;;;;;;4943807;28;20205;-67
2023/01/12 02:09:20;;;;;;;2.80;1.45;;;7.70;99.90;;;;;;4943083;29;20220;-67
2023/01/12 02:17:34;;;;;;;3.33;1.80;;;7.70;99.90;;;;;;4955563;28;20562;-67
2023/01/12 02:20:34;;;;;;;6.72;2.50;;;7.70;99.90;;;;;;4943702;29;20215;-67
2023/01/12 02:23:28;;;;;;;5.00;1.70;;;7.70;99.90;;;;;;4952677;29;20638;-67
2023/01/12 02:26:27;;;;;;;4.95;1.58;;;7.70;99.90;;;;;;4948649;28;20648;-67
2023/01/12 02:29:49;;;;;;;3.20;1.40;;;7.70;99.90;;;;;;4914809;28;20198;-67
2023/01/12 02:32:25;;;;;;;3.50;1.50;;;7.70;99.90;;;;;;4841342;29;20274;-66
2023/01/12 02:35:05;;;;;;;4.55;1.73;;;7.70;99.90;;;;;;4950972;28;20248;-67
2023/01/12 02:37:38;;;;;;;5.93;2.05;;;7.70;99.90;;;;;;4952113;29;20203;-66
2023/01/12 02:40:09;;;;;;;5.75;2.45;;;7.80;99.90;;;;;;4951960;28;20206;-66
2023/01/12 02:42:40;;;;;;;4.55;1.30;;;7.70;99.90;;;;;;4951857;28;20317;-66
2023/01/12 02:45:28;;;;;;;5.45;2.45;;;7.80;99.90;;;;;;4948157;28;20202;-66
2023/01/12 02:48:04;;;;;;;4.30;1.50;;;7.80;99.90;;;;;;4938403;28;20202;-67
2023/01/12 02:50:35;;;;;;;5.57;1.88;;;7.80;99.90;;;;;;4947965;29;20206;-67
2023/01/12 02:53:07;;;;;;;4.13;1.70;;;7.70;99.90;;;;;;4950972;29;20225;-67
2023/01/12 02:55:36;;;;;;;4.20;1.63;;;7.70;99.90;;;;;;4945328;29;20209;-67
2023/01/12 02:58:06;;;;;;;3.05;1.40;;;7.70;99.90;;;;;;4951910;29;20194;-66
2023/01/12 03:00:37;;;;;;;5.60;1.55;;;7.70;99.90;;;;;;4950484;29;20673;-66
2023/01/12 03:03:06;;;;;;;5.50;1.75;;;7.70;99.90;;;;;;4952334;29;20314;-66
2023/01/12 03:05:33;;;;;;;5.78;1.80;;;7.60;99.90;;;;;;4949665;29;20206;-67
2023/01/12 03:08:02;;;;;;;4.10;1.80;;;7.60;99.90;;;;;;4946637;29;20198;-66
2023/01/12 03:10:54;;;;;;;5.80;1.88;;;7.60;99.90;;;;;;4948421;29;20623;-66
2023/01/12 03:13:24;;;;;;;4.25;1.77;;;7.60;99.90;;;;;;4950234;29;20220;-66
2023/01/12 03:15:55;;;;;;;6.38;1.55;;;7.60;99.90;;;;;;4938977;29;20197;-66
2023/01/12 03:18:30;;;;;;;4.65;1.63;;;7.50;99.90;;;;;;4937500;29;20556;-67
2023/01/12 03:21:02;;;;;;;6.18;2.00;;;7.50;99.90;;;;;;4950394;28;20260;-67
2023/01/12 03:23:36;;;;;;;4.55;1.60;;;7.50;99.90;;;;;;4952246;29;20233;-66
2023/01/12 03:26:05;;;;;;;2.05;1.35;;;7.50;99.90;;;;;;4940185;29;20200;-67
2023/01/12 03:28:35;;;;;;;3.58;1.98;;;7.60;99.90;;;;;;4948370;28;20206;-67
2023/01/12 03:31:07;;;;;;;3.30;1.60;;;7.60;99.90;;;;;;4940057;29;20208;-66
2023/01/12 03:33:36;;;;;;;5.15;1.58;;;7.50;99.90;;;;;;4946196;29;20266;-67
2023/01/12 03:36:11;;;;;;;3.13;1.40;;;7.60;99.90;;;;;;4942333;29;20202;-67
2023/01/12 03:38:46;;;;;;;4.50;2.00;;;7.60;99.90;;;;;;4943257;29;20666;-66
2023/01/12 03:41:21;;;;;;;4.57;1.90;;;7.60;99.90;;;;;;4943871;29;20297;-66
2023/01/12 03:43:52;;;;;;;7.05;2.22;;;7.60;99.90;;;;;;4948372;28;20610;-66
2023/01/12 03:46:26;;;;;;;4.88;2.45;;;7.60;99.90;;;;;;4945096;29;20194;-67
2023/01/12 03:49:01;;;;;;;8.07;3.15;;;7.60;99.90;;;;;;4942621;29;20204;-66
2023/01/12 03:51:33;;;;;;;3.22;1.73;;;7.60;99.90;;;;;;4950660;29;20198;-66
2023/01/12 03:54:03;;;;;;;6.07;1.85;;;7.60;99.90;;;;;;4942983;29;20191;-67
2023/01/12 03:56:34;;;;;;;5.07;1.80;;;7.70;99.90;;;;;;4942817;29;20594;-67
2023/01/12 03:59:03;;;;;;;6.82;1.63;;;7.70;99.90;;;;;;4946448;29;20205;-66
2023/01/12 04:01:30;;;;;;;2.80;1.55;;;7.70;99.90;;;;;;4950506;29;20223;-66
2023/01/12 04:03:58;;;;;;;3.25;1.63;;;7.70;99.90;;;;;;4942798;28;20236;-66
2023/01/12 04:06:25;;;;;;;5.68;1.98;;;7.70;99.90;;;;;;4944260;29;20202;-67
2023/01/12 04:08:52;;;;;;;2.50;1.45;;;7.70;99.90;;;;;;4950835;29;20210;-66
2023/01/12 04:14:04;;;;;;;4.72;1.75;;;7.80;99.90;;;;;;4947339;29;20198;-66
2023/01/12 04:16:31;;;;;;;6.00;1.75;;;7.80;99.90;;;;;;4949627;29;20208;-66
2023/01/12 04:18:59;;;;;;;6.63;1.90;;;7.80;99.90;;;;;;4941395;28;20221;-66
2023/01/12 04:24:10;;;;;;;5.80;1.70;;;7.80;99.90;;;;;;4942633;28;20215;-66
2023/01/12 04:26:37;;;;;;;7.22;1.98;;;7.80;99.90;;;;;;4944300;29;20202;-66
2023/01/12 04:29:04;;;;;;;3.63;1.30;;;7.90;99.90;;;;;;4949753;28;20233;-66
2023/01/12 04:31:31;;;;;;;5.03;1.70;;;7.90;99.90;;;;;;4953340;29;20306;-67
2023/01/12 04:34:00;;;;;;;6.32;1.40;;;7.90;99.90;;;;;;4955476;29;20194;-66
2023/01/12 04:36:27;;;;;;;5.68;1.50;;;7.90;99.90;;;;;;4945504;29;20209;-66
2023/01/12 04:38:54;;;;;;;6.72;2.83;;;7.90;99.90;;;;;;4951994;29;20202;-66
2023/01/12 04:41:21;;;;;;;5.97;1.98;;;7.90;99.90;;;;;;4952517;29;20206;-66
2023/01/12 04:43:48;;;;;;;4.22;1.65;;;7.90;99.90;;;;;;4943832;29;20227;-65
2023/01/12 04:46:15;;;;;;;5.13;2.03;;;7.90;99.90;;;;;;4944278;29;20322;-66
2023/01/12 04:48:44;;;;;;;5.88;1.75;;;7.90;99.90;;;;;;4955783;28;20220;-65
2023/01/12 04:51:13;;;;;;;5.70;1.88;;;7.90;99.90;;;;;;4939601;29;20204;-66
2023/01/12 04:53:40;;;;;;;8.23;1.70;;;7.90;99.90;;;;;;4955111;29;20289;-66
2023/01/12 04:56:08;;;;;;;7.75;1.75;;;7.90;99.90;;;;;;4951610;28;20197;-66
2023/01/12 04:58:36;;;;;;;4.82;1.70;;;7.90;99.90;;;;;;4954520;29;20707;-66
2023/01/12 05:01:08;;;;;;;6.10;2.05;;;7.90;99.90;;;;;;4953109;29;20577;-66
2023/01/12 05:03:36;;;;;;;4.70;1.90;;;7.90;99.90;;;;;;4954297;28;20300;-66
2023/01/12 05:06:04;;;;;;;7.50;1.65;;;8.00;99.90;;;;;;4950367;29;20199;-66
2023/01/12 05:11:19;;;;;;;3.78;1.40;;;8.00;99.90;;;;;;4950311;28;20277;-66
2023/01/12 05:13:47;;;;;;;8.23;2.65;;;8.00;99.90;;;;;;4938870;28;21235;-67
2023/01/12 05:16:17;;;;;;;5.75;1.90;;;8.10;99.90;;;;;;4945129;28;20210;-67
2023/01/12 05:18:45;;;;;;;5.70;1.92;;;8.00;99.90;;;;;;4953695;29;20205;-67
2023/01/12 05:21:12;;;;;;;4.95;1.55;;;8.10;99.90;;;;;;4959304;28;20746;-66
2023/01/12 05:23:41;;;;;;;6.13;1.55;;;8.10;99.90;;;;;;4955890;28;20287;-66
2023/01/12 05:26:09;;;;;;;5.15;2.05;;;8.10;99.90;;;;;;4946961;29;20563;-66
2023/01/12 05:28:37;;;;;;;9.95;2.38;;;8.10;99.90;;;;;;4944584;29;20293;-66
2023/01/12 05:31:06;;;;;;;4.72;1.60;;;8.10;99.90;;;;;;4943117;29;20201;-67
2023/01/12 05:33:33;;;;;;;5.32;1.75;;;8.20;99.90;;;;;;4948665;28;20210;-67
2023/01/12 05:36:04;;;;;;;6.05;1.90;;;8.20;99.90;;;;;;4935851;28;20292;-68
2023/01/12 05:38:31;;;;;;;7.30;1.65;;;8.20;99.90;;;;;;4961710;28;20551;-68
2023/01/12 05:41:00;;;;;;;5.82;1.90;;;8.20;99.90;;;;;;4961446;28;20205;-74
2023/01/12 05:46:12;;;;;;;4.30;1.23;;;8.30;99.90;;;;;;4954587;28;20285;-73
2023/01/12 05:48:39;;;;;;;5.07;1.60;;;8.30;99.90;;;;;;4952337;28;20284;-74
2023/01/12 05:51:08;;;;;;;6.68;1.92;;;8.30;99.90;;;;;;4951389;28;20203;-72
2023/01/12 05:53:36;;;;;;;6.82;1.80;;;8.30;99.90;;;;;;4946840;28;20210;-74
2023/01/12 05:56:08;;;;;;;5.82;2.15;;;8.30;99.90;;;;;;4955079;28;20198;-72
2023/01/12 05:58:35;;;;;;;7.00;1.95;;;8.30;99.90;;;;;;4952823;28;20207;-72
2023/01/12 06:01:06;;;;;;;6.63;2.42;;;8.30;99.90;;;;;;4955900;28;20200;-72
2023/01/12 06:03:52;;;;;;;4.70;1.80;;;8.20;99.90;;;;;;4936243;28;20800;-72
2023/01/12 06:06:22;;;;;;;6.07;1.60;;;8.20;99.90;;;;;;4949293;28;20204;-72
2023/01/12 06:08:51;;;;;;;4.70;2.00;;;8.10;99.90;;;;;;4943934;28;20202;-72
2023/01/12 06:14:04;;;;;;;4.38;1.75;;;8.10;99.90;;;;;;4946080;28;20230;-73
2023/01/12 06:16:31;;;;;;;6.38;1.77;;;8.10;99.90;;;;;;4944101;28;20291;-73
2023/01/12 06:18:58;;;;;;;6.53;1.88;;;8.00;99.90;;;;;;4937419;28;20304;-72
2023/01/12 06:21:25;;;;;;;5.72;2.05;;;8.00;99.90;;;;;;4934212;29;20280;-72
2023/01/12 06:23:52;;;;;;;6.72;2.05;;;8.00;99.90;;;;;;4941623;29;20227;-72
2023/01/12 06:26:21;;;;;;;8.10;1.85;;;8.00;99.90;;;;;;4933491;29;20285;-72
2023/01/12 06:28:48;;;;;;;5.53;1.92;;;8.00;99.90;;;;;;4942387;28;20312;-72
2023/01/12 06:31:15;;;;;;;4.68;2.05;;;8.00;99.90;;;;;;4953152;29;20230;-71
2023/01/12 06:33:42;;;;;;;10.70;2.50;;;8.00;99.90;;;;;;4941425;29;20226;-71
2023/01/12 06:36:10;;;;;;;5.45;1.83;;;8.00;99.90;;;;;;4953342;29;20197;-72
2023/01/12 06:38:38;;;;;;;4.95;1.55;;;8.00;99.90;;;;;;4934487;28;20292;-72
2023/01/12 06:41:06;;;;;;;6.15;1.70;;;8.00;99.90;;;;;;4938490;28;20209;-72
2023/01/12 06:43:34;;;;;;;5.78;2.22;;;8.00;99.90;;;;;;4947461;28;20233;-70
2023/01/12 06:46:01;;;;;;;5.95;1.95;;;8.00;99.90;;;;;;4942854;28;20197;-73
2023/01/12 06:48:28;;;;;;;5.63;1.70;;;8.00;99.90;;;;;;4949989;28;20200;-73
2023/01/12 06:50:59;;;;;;;4.88;1.92;;;7.80;99.90;;;;;;4952695;28;20356;-72
2023/01/12 06:53:26;;;;;;;7.35;1.83;;;8.00;99.90;;;;;;4946409;28;20202;-73
2023/01/12 06:55:53;;;;;;;5.95;1.90;;;8.10;99.90;;;;;;4948818;28;20209;-72
2023/01/12 06:58:21;;;;;;;6.50;2.03;;;8.10;99.90;;;;;;4944602;28;20207;-72
2023/01/12 07:00:49;;;;;;;6.07;1.60;;;8.10;99.90;;;;;;4952688;28;20219;-70
2023/01/12 07:03:17;;;;;;;4.30;1.50;;;8.10;99.90;;;;;;4947555;28;20229;-73
2023/01/12 07:05:44;;;;;;;5.90;1.70;;;8.10;99.90;;;;;;4949586;28;20658;-71
2023/01/12 07:08:14;;;;;;;4.60;1.45;;;8.10;99.90;;;;;;4948799;28;20290;-72
2023/01/12 07:10:41;;;;;;;6.28;1.80;;;8.10;99.90;;;;;;4949963;28;20206;-72
2023/01/12 07:13:09;;;;;;;5.38;2.00;;;8.20;99.90;;;;;;4950241;28;20250;-72
2023/01/12 07:15:36;;;;;;;5.03;1.60;;;8.20;99.90;;;;;;4952792;29;20198;-72
2023/01/12 07:18:04;;;;;;;3.75;1.58;;;8.20;99.90;;;;;;4949870;29;20203;-73
2023/01/12 07:20:32;;;;;;;5.47;1.92;;;8.20;99.90;;;;;;4949416;28;20203;-73
2023/01/12 07:22:59;;;;;;;5.30;1.67;;;7.90;99.90;;;;;;4952000;29;20251;-71
2023/01/12 07:25:27;;;;;;;4.90;1.55;;;8.30;99.90;;;;;;4950750;29;20210;-72
2023/01/12 07:27:56;;;;;;;9.65;2.13;;;8.30;99.90;;;;;;4950604;29;20230;-72
2023/01/12 07:30:23;;;;;;;5.65;1.77;;;8.30;99.90;;;;;;4950115;29;20250;-72
2023/01/12 07:32:51;;;;;;;7.00;1.60;;;8.30;99.90;;;;;;4939682;29;20231;-72
2023/01/12 07:35:20;;;;;;;5.20;1.80;;;8.40;99.90;;;;;;4951268;29;20203;-72
2023/01/12 07:37:48;;;;;;;5.80;1.55;;;8.40;99.90;;;;;;4949764;28;20238;-72
2023/01/12 07:40:15;;;;;;;5.60;1.70;;;8.40;99.90;;;;;;4948686;28;20236;-72
2023/01/12 07:42:42;;;;;;;3.80;1.73;;;8.40;99.90;;;;;;4941760;28;20666;-72
2023/01/12 07:45:10;;;;;;;7.85;2.58;;;8.50;99.90;;;;;;4945620;28;20207;-72
2023/01/12 07:47:37;;;;;;;8.38;1.88;;;8.50;99.90;;;;;;4952153;28;20284;-71
2023/01/12 07:50:05;;;;;;;6.18;2.05;;;8.50;99.90;;;;;;4934652;29;20214;-72
2023/01/12 07:52:34;;;;;;;4.53;1.50;;;8.50;99.90;;;;;;4937375;29;20244;-72
2023/01/12 07:55:00;;;;;;;4.32;1.50;;;8.50;99.90;;;;;;4937065;29;20215;-72
2023/01/12 07:57:28;;;;;;;3.88;1.45;;;8.50;99.90;;;;;;4933503;28;20649;-73
2023/01/12 07:59:55;;;;;;;5.07;1.70;;;8.50;99.90;;;;;;4948184;29;20218;-72
2023/01/12 08:02:22;;;;;;;5.63;1.80;;;8.60;99.90;;;;;;4952457;29;20258;-72
2023/01/12 08:04:49;;;;;;;6.22;1.80;;;8.60;99.90;;;;;;4942904;28;20330;-72
2023/01/12 08:07:16;;;;;;;7.50;1.45;;;8.70;99.90;;;;;;4936701;29;20211;-72
2023/01/12 08:09:44;;;;;;;3.55;1.30;;;8.60;99.90;;;;;;4950973;29;20607;-72
2023/01/12 08:12:11;;;;;;;5.95;1.95;;;8.60;99.90;;;;;;4953307;29;20220;-72
2023/01/12 08:14:41;;;;;;;4.43;1.42;;;8.70;99.90;;;;;;4948061;29;20204;-71
2023/01/12 08:17:13;;;;;;;4.50;1.70;;;8.70;99.90;;;;;;4953391;28;20260;-72
2023/01/12 08:19:43;;;;;;;3.67;1.65;;;8.70;99.90;;;;;;4955057;28;20222;-71
2023/01/12 08:22:15;;;;;;;4.15;1.33;;;8.70;99.90;;;;;;4953038;29;20847;-72
2023/01/12 08:24:49;;;;;;;5.00;2.40;;;8.70;99.90;;;;;;4936370;29;20592;-72
2023/01/12 08:27:18;;;;;;;4.50;1.50;;;8.70;99.90;;;;;;4936287;29;20238;-72
2023/01/12 08:29:49;;;;;;;5.95;1.40;;;8.70;99.90;;;;;;4951681;29;20235;-73
2023/01/12 08:32:17;;;;;;;5.68;1.75;;;8.80;99.90;;;;;;4954212;29;20265;-72
2023/01/12 08:34:47;;;;;;;3.38;1.20;;;8.80;99.90;;;;;;4942767;28;20199;-72
2023/01/12 08:37:16;;;;;;;6.82;1.98;;;8.80;99.90;;;;;;4953223;28;20198;-73
2023/01/12 08:39:45;;;;;;;5.82;1.80;;;8.80;99.90;;;;;;4952943;29;20309;-72
2023/01/12 08:42:12;;;;;;;5.53;1.60;;;8.70;99.90;;;;;;4954016;29;20225;-72
2023/01/12 08:44:40;;;;;;;3.83;1.48;;;8.80;99.90;;;;;;4954067;28;20718;-71
2023/01/12 08:47:16;;;;;;;3.30;1.50;;;8.80;99.90;;;;;;4953792;28;20251;-71
2023/01/12 08:49:43;;;;;;;7.22;1.63;;;8.70;99.90;;;;;;4951700;28;20679;-72
2023/01/12 08:52:10;;;;;;;6.68;1.90;;;8.80;99.90;;;;;;4948946;29;20235;-71
2023/01/12 08:54:37;;;;;;;6.07;1.92;;;8.70;99.90;;;;;;4944378;28;20207;-71
2023/01/12 08:57:06;;;;;;;3.97;1.50;;;8.80;99.90;;;;;;4947668;28;20645;-71
2023/01/12 08:59:33;;;;;;;5.30;2.20;;;8.80;99.90;;;;;;4948903;29;20682;-71
2023/01/12 09:02:00;;;;;;;5.22;2.08;;;8.80;99.90;;;;;;4954796;29;20227;-70
2023/01/12 09:04:27;;;;;;;6.03;1.95;;;8.90;99.90;;;;;;4949794;29;20232;-71
2023/01/12 09:06:54;;;;;;;4.00;1.50;;;8.80;99.90;;;;;;4935541;29;20292;-71
2023/01/12 09:09:21;;;;;;;5.40;1.23;;;8.90;99.90;;;;;;4946942;29;20731;-71
2023/01/12 09:11:50;;;;;;;7.30;1.90;;;8.90;99.90;;;;;;4954762;29;20788;-70
2023/01/12 09:14:18;;;;;;;4.40;1.52;;;8.90;99.90;;;;;;4944970;28;20202;-70
2023/01/12 09:16:45;;;;;;;4.63;1.73;;;8.90;99.90;;;;;;4938578;28;20509;-71
2023/01/12 09:19:13;;;;;;;3.92;1.52;;;9.00;99.90;;;;;;4949164;29;20263;-71
2023/01/12 09:21:42;;;;;;;4.32;1.60;;;9.10;99.90;;;;;;4952977;28;20269;-71
2023/01/12 09:24:09;;;;;;;2.90;1.40;;;9.00;99.90;;;;;;4952319;29;20329;-70
2023/01/12 09:26:38;;;;;;;4.75;1.52;;;9.00;99.90;;;;;;4953379;28;20204;-71
2023/01/12 09:29:06;;;;;;;6.25;2.40;;;9.00;99.90;;;;;;4942520;29;20678;-71
2023/01/12 09:31:36;;;;;;;4.72;1.42;;;9.10;99.90;;;;;;4952909;29;20226;-72
2023/01/12 09:34:04;;;;;;;3.72;1.33;;;9.10;99.90;;;;;;4944805;28;20207;-71
2023/01/12 09:36:33;;;;;;;4.40;1.30;;;9.10;99.90;;;;;;4934982;29;20238;-70
2023/01/12 09:39:01;;;;;;;6.57;1.77;;;9.10;99.90;;;;;;4940836;29;20231;-71
2023/01/12 09:47:09;;;;;;;4.45;1.98;;;9.20;99.90;;;;;;4934645;29;20208;-72
2023/01/12 09:49:41;;;;;;;5.28;1.50;;;9.20;99.90;;;;;;4941803;28;20215;-71
2023/01/12 09:52:15;;;;;;;4.20;1.45;;;9.20;99.90;;;;;;4951083;28;20313;-71
2023/01/12 09:54:42;;;;;;;4.60;1.90;;;9.30;99.90;;;;;;4945356;28;20195;-71
2023/01/12 09:57:25;;;;;;;7.88;1.60;;;9.30;99.90;;;;;;4951369;28;20740;-71
2023/01/12 10:00:01;;;;;;;3.25;1.60;;;9.30;99.90;;;;;;4951334;28;20199;-71
2023/01/12 10:02:33;;;;;;;3.88;1.80;;;9.30;99.90;;;;;;4951349;28;20314;-71
2023/01/12 10:05:04;;;;;;;5.78;1.55;;;9.40;99.90;;;;;;4946255;28;20703;-71
2023/01/12 10:07:31;;;;;;;3.10;1.50;;;9.30;99.90;;;;;;4951713;28;20200;-71
2023/01/12 10:09:58;;;;;;;4.82;1.67;;;9.30;99.90;;;;;;4952273;28;20256;-71
2023/01/12 10:12:31;;;;;;;4.70;1.95;;;9.40;99.90;;;;;;4952458;28;20226;-71
2023/01/12 10:15:20;;;;;;;8.18;2.25;;;9.40;99.90;;;;;;4949357;28;20196;-71
2023/01/12 10:17:53;;;;;;;5.35;1.60;;;9.40;99.90;;;;;;4955209;28;20195;-72
2023/01/12 10:20:27;;;;;;;2.45;1.25;;;9.50;99.90;;;;;;4951600;28;20222;-71
2023/01/12 10:22:58;;;;;;;3.85;1.50;;;9.50;99.90;;;;;;4951429;28;20203;-72
2023/01/12 10:25:36;;;;;;;3.05;1.50;;;9.60;99.90;;;;;;4949010;28;20318;-72
2023/01/12 10:28:08;;;;;;;7.20;1.60;;;9.60;99.90;;;;;;4946135;28;20222;-72
2023/01/12 10:30:37;;;;;;;5.15;1.30;;;9.60;99.90;;;;;;4947587;28;20356;-71
2023/01/12 10:33:15;;;;;;;3.72;1.63;;;9.70;99.90;;;;;;4951221;28;20266;-72
2023/01/12 10:35:53;;;;;;;3.70;1.40;;;9.70;99.90;;;;;;4948639;28;20235;-71
2023/01/12 10:38:23;;;;;;;3.15;1.17;;;9.70;99.90;;;;;;4947280;28;20218;-71
2023/01/12 10:41:13;;;;;;;2.33;1.38;;;9.80;99.90;;;;;;4949150;28;20223;-71
2023/01/12 10:43:41;;;;;;;2.53;1.40;;;9.80;99.90;;;;;;4947983;28;20228;-71
2023/01/12 10:46:14;;;;;;;4.72;1.63;;;9.80;99.90;;;;;;4949323;28;20206;-71
2023/01/12 10:48:45;;;;;;;3.95;1.20;;;9.80;99.90;;;;;;4950849;28;20686;-71
2023/01/12 10:51:24;;;;;;;6.55;1.40;;;9.80;99.90;;;;;;4950518;28;20321;-72
2023/01/12 10:53:56;;;;;;;1.80;1.10;;;9.80;99.90;;;;;;4949809;28;20206;-72
2023/01/12 10:56:32;;;;;;;4.85;1.85;;;9.80;99.90;;;;;;4954405;28;20203;-72
2023/01/12 10:59:02;;;;;;;3.30;1.17;;;9.80;99.90;;;;;;4951157;28;20266;-72
2023/01/12 11:01:46;;;;;;;3.17;1.45;;;9.80;99.90;;;;;;4951176;28;20224;-73
2023/01/12 11:04:18;;;;;;;7.22;1.70;;;9.90;99.90;;;;;;4948942;28;20224;-72
2023/01/12 11:06:56;;;;;;;2.47;1.20;;;9.90;99.90;;;;;;4948491;28;20284;-72
2023/01/12 11:09:25;;;;;;;4.60;1.85;;;9.90;99.90;;;;;;4949318;28;20287;-72
2023/01/12 11:11:55;;;;;;;3.20;1.13;;;9.90;99.90;;;;;;4950351;28;20222;-72
2023/01/12 11:14:28;;;;;;;3.65;1.23;;;9.90;99.90;;;;;;4946804;28;20218;-71
2023/01/12 11:17:05;;;;;;;3.85;1.30;;;9.90;99.90;;;;;;4945679;28;20193;-72
2023/01/12 11:19:39;;;;;;;1.77;1.00;;;9.90;99.90;;;;;;4959577;28;20298;-71
2023/01/12 11:22:10;;;;;;;3.75;1.27;;;9.90;99.90;;;;;;4953367;28;20707;-72
2023/01/12 11:24:43;;;;;;;5.88;1.65;;;9.90;99.90;;;;;;4948724;28;20628;-73
2023/01/12 11:27:20;;;;;;;4.10;1.10;;;9.90;99.90;;;;;;4942500;28;20200;-71
2023/01/12 11:29:57;;;;;;;2.70;1.10;;;9.90;99.90;;;;;;4951342;28;20227;-73
2023/01/12 11:32:32;;;;;;;1.85;0.88;;;9.90;99.90;;;;;;4947026;28;20321;-72
2023/01/12 11:35:04;;;;;;;2.10;0.90;;;9.90;99.90;;;;;;4944891;28;20256;-72
2023/01/12 11:37:37;;;;;;;5.82;1.52;;;10.00;99.90;;;;;;4948547;28;20207;-71
2023/01/12 11:40:15;;;;;;;3.42;1.20;;;10.10;99.90;;;;;;4946656;28;20247;-71
2023/01/12 11:45:40;;;;;;;1.73;0.98;;;10.30;99.90;;;;;;4944946;28;20270;-71
2023/01/12 11:48:19;;;;;;;1.70;1.00;;;10.40;99.90;;;;;;4939343;28;20550;-71
2023/01/12 11:50:49;;;;;;;1.88;1.08;;;10.40;99.90;;;;;;4945618;28;20311;-72
2023/01/12 11:53:21;;;;;;;2.60;1.08;;;10.60;99.90;;;;;;4954813;28;20200;-72
2023/01/12 11:56:08;;;;;;;1.75;1.10;;;10.50;99.90;;;;;;4953428;28;20195;-72
2023/01/12 11:58:44;;;;;;;1.83;1.33;;;10.60;99.90;;;;;;4954742;28;20196;-72
2023/01/12 12:01:20;;;;;;;1.42;0.70;;;10.70;99.90;;;;;;4951996;28;20408;-73
2023/01/12 12:03:58;;;;;;;1.25;0.80;;;11.00;99.90;;;;;;4951235;28;20320;-72
2023/01/12 12:06:52;;;;;;;1.50;0.93;;;11.10;99.90;;;;;;4947119;28;20322;-72
2023/01/12 12:09:31;;;;;;;1.77;0.95;;;11.10;99.90;;;;;;4949593;28;20212;-72
2023/01/12 12:12:02;;;;;;;1.23;1.13;;;11.30;99.90;;;;;;4954492;28;20220;-72
2023/01/12 12:14:51;;;;;;;1.40;0.65;;;11.60;99.90;;;;;;4954583;28;20196;-72
2023/01/12 12:17:22;;;;;;;2.15;0.60;;;11.90;99.90;;;;;;4952236;28;20214;-72
2023/01/12 12:20:00;;;;;;;1.05;0.75;;;11.80;99.90;;;;;;4949301;28;20202;-72
2023/01/12 12:22:41;;;;;;;1.88;0.80;;;11.60;99.90;;;;;;4951565;28;20294;-72
2023/01/12 12:25:25;;;;;;;1.48;0.70;;;11.40;99.90;;;;;;4949653;28;20217;-72
2023/01/12 12:28:14;;;;;;;2.30;0.90;;;11.10;99.90;;;;;;4953248;28;20236;-72
2023/01/12 12:31:02;;;;;;;1.38;0.90;;;11.10;99.90;;;;;;4954162;28;20719;-72
2023/01/12 12:33:41;;;;;;;1.00;0.68;;;11.30;99.90;;;;;;4954875;28;20204;-73
2023/01/12 12:36:17;;;;;;;3.53;0.85;;;11.50;99.90;;;;;;4948876;28;20287;-72
2023/01/12 12:39:13;;;;;;;1.30;0.60;;;11.60;99.90;;;;;;4943761;28;20914;-71
2023/01/12 12:48:00;;;;;;;1.70;0.77;;;11.60;99.90;;;;;;4942991;28;20197;-71
2023/01/12 12:50:30;;;;;;;1.25;0.73;;;11.40;99.90;;;;;;4943837;28;20224;-71
2023/01/12 12:53:24;;;;;;;3.17;1.27;;;11.30;99.90;;;;;;4949974;28;20284;-72
2023/01/12 12:55:55;;;;;;;2.13;1.10;;;11.10;99.90;;;;;;4940659;28;20209;-72
2023/01/12 12:58:42;;;;;;;1.88;1.10;;;10.90;99.90;;;;;;4948945;28;20204;-72
2023/01/12 13:01:54;;;;;;;3.45;0.82;;;10.90;99.90;;;;;;4947138;28;20311;-71
2023/01/12 13:04:54;;;;;;;1.40;0.73;;;10.80;99.90;;;;;;4948185;28;20196;-71
2023/01/12 13:07:22;;;;;;;1.65;0.90;;;10.70;99.90;;;;;;4951218;28;20288;-72
2023/01/12 13:09:50;;;;;;;1.25;0.70;;;10.70;99.90;;;;;;4947472;28;20553;-72
2023/01/12 13:12:33;;;;;;;1.73;1.15;;;10.70;99.90;;;;;;4949163;28;20323;-72
2023/01/12 13:15:24;;;;;;;1.90;0.90;;;10.70;99.90;;;;;;4947709;28;20198;-72
2023/01/12 13:17:53;;;;;;;2.50;1.00;;;10.70;99.90;;;;;;4945571;28;20291;-73
2023/01/12 13:20:51;;;;;;;1.42;0.90;;;10.60;99.90;;;;;;4947166;28;20635;-72
2023/01/12 13:23:41;;;;;;;1.98;0.80;;;10.60;99.90;;;;;;4952033;28;20197;-73
2023/01/12 13:26:24;;;;;;;1.88;1.10;;;10.60;99.90;;;;;;4951301;28;20242;-72
2023/01/12 13:29:25;;;;;;;1.13;0.70;;;10.60;99.90;;;;;;4950564;28;20284;-72
2023/01/12 13:31:56;;;;;;;1.65;0.70;;;10.60;99.90;;;;;;4943306;28;20709;-73
2023/01/12 13:34:40;;;;;;;1.45;0.70;;;10.70;99.90;;;;;;4952708;28;20207;-72
2023/01/12 13:37:19;;;;;;;1.05;0.85;;;10.60;99.90;;;;;;4946020;28;20196;-71
2023/01/12 13:39:55;;;;;;;1.05;0.70;;;10.60;99.90;;;;;;4953083;28;20259;-72
2023/01/12 13:45:10;;;;;;;1.73;0.82;;;10.60;99.90;;;;;;4928081;28;20677;-72
2023/01/12 13:47:38;;;;;;;1.50;0.80;;;10.60;99.90;;;;;;4943421;28;20227;-72
2023/01/12 13:50:13;;;;;;;1.17;0.70;;;10.60;99.90;;;;;;4936157;28;20202;-72
2023/01/12 13:52:40;;;;;;;1.35;0.88;;;10.50;99.90;;;;;;4945965;28;20253;-72
2023/01/12 13:55:19;;;;;;;1.05;0.70;;;10.50;99.90;;;;;;4944566;28;20200;-73
2023/01/12 13:57:55;;;;;;;1.85;1.00;;;10.50;99.90;;;;;;4937204;28;20193;-73
2023/01/12 14:00:23;;;;;;;1.13;0.70;;;10.40;99.90;;;;;;4952372;28;20216;-72
2023/01/12 14:02:54;;;;;;;1.05;0.70;;;10.40;99.90;;;;;;4948929;28;20297;-72